NEW HOGAN LAKE (NHG)

Elevation: 554' · CALAVERAS R basin · Operator: US Army Corps of Engineers

Provisional data, subject to change.
Query executed Friday at 0:37:00   clock

Select a sensor type for a plot of data.
Note: Reservoir Flows are daily averages.

Earlier

Date RES ELE    STORAGE    RES CHG    TOC STO    ABV TOC    OUTFLOW    INFLOW    FNF    PPT INC    TEMP MN    TEMP MX   
 FEET   AF   AF   AF   AF   CFS   CFS   CFS   INCHES   DEG F   DEG F  
08/20/2014 622.27 55725 -318 317100 -261375 141 -5 -5 0.00 15 29
08/21/2014 622.09 55440 -285 317100 -261660 140 11 11 0.00 15 33
08/22/2014 621.86 55077 -363 317100 -262023 163 -3 -3 0.00 17 34
08/23/2014 621.62 54700 -377 317100 -262400 186 12 12 0.00 15 33
08/24/2014 621.36 54293 -407 317100 -262807 198 9 -- 0.00 15 32
08/25/2014 621.12 53919 -374 317100 -263181 179 4 -- 0.00 14 28
08/26/2014 620.91 53593 -326 317100 -263507 164 14 14 0.00 14 32
08/27/2014 620.69 53253 -340 317100 -263847 164 9 9 0.00 18 35
08/28/2014 620.48 52929 -- 317100 -- 167 20 20 0.00 19 36
08/29/2014 620.24 52561 -368 317100 -264539 180 8 8 0.00 17 35
08/30/2014 620.00 52194 -367 317100 -264906 187 19 19 0.00 18 36
08/31/2014 619.78 51859 -335 317100 -265241 182 29 29 0.00 17 34
09/01/2014 619.57 51540 -319 317100 -265560 164 21 21 0.00 18 36
09/02/2014 619.35 51208 -332 317100 -265892 165 16 16 0.00 19 36
09/03/2014 619.12 50862 -346 317100 -266238 173 14 14 0.00 14 34
09/04/2014 618.89 50517 -360 317100 -266598 179 21 -- 0.00 16 35
09/05/2014 618.64 50144 -373 317100 -266956 183 10 10 0.00 16 33
09/06/2014 618.39 49772 -372 317100 -267328 184 12 12 0.00 18 34
09/07/2014 618.23 49535 -237 317100 -267565 133 29 29 0.00 15 35
09/08/2014 618.04 49255 -280 317100 -267845 135 8 -- 0.00 15 31
09/09/2014 617.86 48990 -265 317100 -268110 144 24 24 0.00 12 32
09/10/2014 617.67 48711 -279 317100 -268389 147 23 23 0.00 15 35
09/11/2014 617.41 48332 -379 317100 -268768 197 23 -- 0.00 17 37
09/12/2014 617.14 47939 -393 317100 -269161 221 41 41 0.00 18 38
09/13/2014 616.92 47621 -318 317100 -269479 180 36 36 0.00 21 38
09/14/2014 616.72 47333 -288 317100 -269767 157 27 27 0.00 18 38
09/15/2014 616.53 47060 -273 317100 -270040 138 16 -- 0.00 19 34
09/16/2014 616.37 46831 -229 317100 -270269 123 20 -- 0.00 16 33
09/17/2014 616.21 46603 -228 317100 -270497 119 19 -- 0.00 16 35
09/18/2014 -- -- -- -- -- -- -- -- -- -- --
09/19/2014 -- -- -- -- -- -- -- -- -- -- --

Later | Latest

Warning! This data is preliminary and subject to revision.

Download Data Now Download Data Now | Show NHG Map | Plot NHG Data | 1 Month NHG Data | Real-Time NHG Data | NHG Info